createdAt,value
2019-01-25T00:02:10.997Z,53.57
2019-01-25T00:04:41.239Z,49.70
2019-01-25T00:07:10.553Z,51.67
2019-01-25T00:09:39.928Z,53.20
2019-01-25T00:12:09.077Z,54.23
2019-01-25T00:14:39.343Z,52.20
2019-01-25T00:17:08.473Z,49.73
2019-01-25T00:19:37.665Z,54.07
2019-01-25T00:22:07.647Z,54.93
2019-01-25T00:24:36.703Z,52.23
2019-01-25T00:27:05.888Z,49.80
2019-01-25T00:29:35.133Z,51.80
2019-01-25T00:32:04.489Z,50.77
2019-01-25T00:34:33.751Z,52.20
2019-01-25T00:37:03.168Z,52.80
2019-01-25T00:39:33.629Z,50.30
2019-01-25T00:42:02.762Z,49.37
2019-01-25T00:44:31.861Z,50.57
2019-01-25T00:47:01.588Z,54.87
2019-01-25T00:49:30.774Z,50.37
2019-01-25T00:51:59.833Z,52.83
2019-01-25T00:54:28.949Z,49.00
2019-01-25T00:56:58.255Z,52.90
2019-01-25T00:59:28.481Z,50.80
2019-01-25T01:01:57.903Z,55.57
2019-01-25T01:04:27.001Z,54.07
2019-01-25T01:06:56.052Z,53.50
2019-01-25T01:09:25.105Z,50.23
2019-01-25T01:11:54.281Z,54.17
2019-01-25T01:14:23.462Z,51.27
2019-01-25T01:16:52.747Z,51.23
2019-01-25T01:19:21.983Z,52.50
2019-01-25T01:21:51.374Z,45.50
2019-01-25T01:24:20.695Z,52.37
2019-01-25T01:26:49.854Z,49.90
2019-01-25T01:29:18.992Z,48.63
2019-01-25T01:31:48.280Z,51.10
2019-01-25T01:34:17.345Z,53.13
2019-01-25T01:36:46.377Z,50.23
2019-01-25T01:39:15.547Z,53.93
2019-01-25T01:41:44.845Z,50.47
2019-01-25T01:44:14.010Z,53.30
2019-01-25T01:46:44.268Z,48.23
2019-01-25T01:49:13.359Z,59.03
2019-01-25T01:51:42.658Z,49.33
2019-01-25T01:54:12.464Z,50.00
2019-01-25T01:56:41.618Z,47.90
2019-01-25T01:59:10.974Z,52.93
2019-01-25T02:01:40.303Z,51.13
2019-01-25T02:04:09.354Z,50.77
2019-01-25T02:06:38.684Z,51.30
2019-01-25T02:09:08.646Z,47.83
2019-01-25T02:11:38.570Z,53.13
2019-01-25T02:14:07.664Z,51.60
2019-01-25T02:16:37.897Z,52.70
2019-01-25T02:19:07.373Z,47.83
2019-01-25T02:21:36.546Z,49.53
2019-01-25T02:24:05.878Z,44.97
2019-01-25T02:26:35.027Z,47.30
2019-01-25T02:29:04.371Z,50.27
2019-01-25T02:31:37.505Z,48.23
2019-01-25T02:34:06.762Z,50.93
2019-01-25T02:36:35.797Z,51.57
2019-01-25T02:39:07.848Z,50.13
2019-01-25T02:41:37.347Z,46.97
2019-01-25T02:44:06.654Z,48.63
2019-01-25T02:46:35.767Z,48.37
2019-01-25T02:49:05.096Z,48.43
2019-01-25T02:51:34.888Z,46.97
2019-01-25T02:54:04.690Z,49.30
2019-01-25T02:56:33.934Z,51.83
2019-01-25T02:59:03.038Z,45.47
2019-01-25T03:01:32.617Z,52.57
2019-01-25T03:04:01.824Z,43.33
2019-01-25T03:06:31.081Z,48.43
2019-01-25T03:09:00.362Z,50.20
2019-01-25T03:11:29.584Z,43.07
2019-01-25T03:13:58.691Z,42.90
2019-01-25T03:16:27.783Z,50.10
2019-01-25T03:18:56.850Z,46.10
2019-01-25T03:21:26.069Z,46.27
2019-01-25T03:23:55.538Z,45.33
2019-01-25T03:26:24.826Z,47.07
2019-01-25T03:28:53.987Z,49.63
2019-01-25T03:31:23.064Z,45.43
2019-01-25T03:33:52.650Z,50.23
2019-01-25T03:36:21.818Z,46.00
2019-01-25T03:38:51.069Z,48.40
2019-01-25T03:41:20.326Z,48.07
2019-01-25T03:43:50.458Z,44.47
2019-01-25T03:46:19.588Z,42.43
2019-01-25T03:48:48.782Z,48.33
2019-01-25T03:51:18.283Z,46.60
2019-01-25T03:53:47.466Z,43.40
2019-01-25T03:56:16.685Z,44.97
2019-01-25T03:58:46.085Z,45.53
2019-01-25T04:01:15.953Z,47.87
2019-01-25T04:03:45.261Z,45.10
2019-01-25T04:06:14.326Z,48.50
2019-01-25T04:08:43.464Z,47.63
2019-01-25T04:11:12.564Z,44.97
2019-01-25T04:13:41.725Z,45.23
2019-01-25T04:16:10.924Z,45.67
2019-01-25T04:18:40.565Z,49.63
2019-01-25T04:21:09.704Z,54.63
2019-01-25T04:23:38.941Z,53.83
2019-01-25T04:26:08.256Z,54.93
2019-01-25T04:28:37.526Z,54.97
2019-01-25T04:31:06.888Z,57.33
2019-01-25T04:33:36.038Z,50.77
2019-01-25T04:36:05.207Z,53.93
2019-01-25T04:38:34.542Z,55.43
2019-01-25T04:41:11.223Z,57.77
2019-01-25T04:43:33.727Z,56.20
2019-01-25T04:46:02.870Z,53.67
2019-01-25T04:48:32.183Z,56.60
2019-01-25T04:51:05.117Z,54.50
2019-01-25T04:53:35.908Z,58.97
2019-01-25T04:56:05.580Z,54.73
2019-01-25T04:58:34.818Z,49.03
2019-01-25T05:01:08.069Z,53.37
2019-01-25T05:03:38.101Z,54.60
2019-01-25T05:06:13.649Z,56.57
2019-01-25T05:08:44.323Z,59.27
2019-01-25T05:11:20.035Z,59.90
2019-01-25T05:13:45.309Z,60.33
2019-01-25T05:16:15.213Z,58.57
2019-01-25T05:18:44.556Z,59.87
2019-01-25T05:21:25.312Z,61.33
2019-01-25T05:23:54.521Z,63.40
2019-01-25T05:26:23.809Z,65.80
2019-01-25T05:28:53.258Z,62.50
2019-01-25T05:31:28.497Z,65.77
2019-01-25T05:33:59.244Z,64.67
2019-01-25T05:36:27.331Z,65.07
2019-01-25T05:38:56.610Z,62.83
2019-01-25T05:41:28.622Z,62.27
2019-01-25T05:43:55.506Z,60.00
2019-01-25T05:46:25.080Z,58.60
2019-01-25T05:48:54.544Z,59.07
2019-01-25T05:51:23.780Z,63.67
2019-01-25T05:53:53.638Z,62.23
2019-01-25T05:56:23.758Z,62.93
2019-01-25T05:58:53.137Z,62.97
2019-01-25T06:01:22.435Z,62.43
2019-01-25T06:03:52.002Z,58.27
2019-01-25T06:06:21.343Z,57.47
2019-01-25T06:08:50.640Z,65.07
2019-01-25T06:11:19.779Z,64.43
2019-01-25T06:13:49.106Z,60.10
2019-01-25T06:16:18.525Z,62.77
2019-01-25T06:18:47.634Z,63.77
2019-01-25T06:21:16.659Z,62.03
2019-01-25T06:23:45.764Z,63.67
2019-01-25T06:26:15.028Z,59.40
2019-01-25T06:28:45.418Z,64.53
2019-01-25T06:31:15.002Z,62.63
2019-01-25T06:33:44.272Z,66.53
2019-01-25T06:36:13.879Z,68.27
2019-01-25T06:38:43.452Z,65.67
2019-01-25T06:41:12.815Z,67.00
2019-01-25T06:43:41.897Z,66.97
2019-01-25T06:46:10.940Z,63.40
2019-01-25T06:48:40.082Z,69.73
2019-01-25T06:51:09.146Z,67.30
2019-01-25T06:53:39.022Z,69.40
2019-01-25T06:56:08.143Z,67.90
2019-01-25T06:58:49.413Z,64.47
2019-01-25T07:01:24.202Z,65.67
2019-01-25T07:03:53.322Z,66.80
2019-01-25T07:06:22.529Z,60.00
2019-01-25T07:08:52.698Z,63.63
2019-01-25T07:11:21.838Z,64.20
2019-01-25T07:13:50.990Z,62.70
2019-01-25T07:16:20.166Z,57.10
2019-01-25T07:18:49.573Z,56.77
2019-01-25T07:21:18.646Z,60.80
2019-01-25T07:23:48.081Z,58.90
2019-01-25T07:26:17.153Z,62.87
2019-01-25T07:28:46.301Z,57.50
2019-01-25T07:31:15.474Z,62.10
2019-01-25T07:33:44.588Z,55.30
2019-01-25T07:36:13.710Z,58.27
2019-01-25T07:38:42.910Z,58.73
2019-01-25T07:41:12.252Z,54.57
2019-01-25T07:43:41.645Z,59.83
2019-01-25T07:46:10.830Z,54.53
2019-01-25T07:48:39.825Z,53.77
2019-01-25T07:51:10.003Z,54.60
2019-01-25T07:53:39.165Z,59.60
2019-01-25T07:56:08.281Z,55.40
2019-01-25T07:58:37.515Z,50.47
2019-01-25T08:01:06.502Z,48.63
2019-01-25T08:03:35.714Z,45.97
2019-01-25T08:06:04.760Z,43.50
2019-01-25T08:08:33.857Z,55.87
2019-01-25T08:11:02.981Z,46.63
2019-01-25T08:13:32.070Z,45.80
2019-01-25T08:16:01.252Z,48.20
2019-01-25T08:18:30.250Z,61.47
2019-01-25T08:21:02.249Z,52.30
2019-01-25T08:23:32.656Z,49.10
2019-01-25T08:26:01.698Z,52.73
2019-01-25T08:28:31.738Z,50.10
2019-01-25T08:31:01.044Z,54.87
2019-01-25T08:33:30.328Z,56.47
2019-01-25T08:35:59.498Z,53.40
2019-01-25T08:38:28.431Z,61.67
2019-01-25T08:40:57.473Z,58.27
2019-01-25T08:43:26.724Z,53.20
2019-01-25T08:45:55.929Z,55.67
2019-01-25T08:48:25.122Z,51.70
2019-01-25T08:50:54.352Z,53.27
2019-01-25T08:53:23.985Z,51.40
2019-01-25T08:55:53.136Z,54.80
2019-01-25T08:58:22.161Z,48.93
2019-01-25T09:00:51.973Z,45.63
2019-01-25T09:03:22.379Z,46.77
2019-01-25T09:05:51.809Z,48.77
2019-01-25T09:08:21.059Z,48.17
2019-01-25T09:10:50.149Z,48.63
2019-01-25T09:13:19.205Z,44.03
2019-01-25T09:15:48.320Z,43.20
2019-01-25T09:18:17.315Z,39.13
2019-01-25T09:20:46.295Z,41.93
2019-01-25T09:23:15.278Z,39.20
2019-01-25T09:25:44.328Z,38.00
2019-01-25T09:28:13.356Z,41.63
2019-01-25T09:30:42.438Z,39.30
2019-01-25T09:33:11.558Z,44.57
2019-01-25T09:35:40.625Z,42.20
2019-01-25T09:38:09.694Z,44.97
2019-01-25T09:40:38.707Z,44.53
2019-01-25T09:43:07.685Z,46.17
2019-01-25T09:45:36.877Z,42.93
2019-01-25T09:48:06.212Z,46.13
2019-01-25T09:50:35.501Z,42.60
2019-01-25T09:53:04.490Z,45.17
2019-01-25T09:55:33.768Z,49.17
2019-01-25T09:58:05.340Z,49.40
2019-01-25T10:00:38.483Z,50.20
2019-01-25T10:03:08.845Z,43.27
2019-01-25T10:05:37.962Z,45.60
2019-01-25T10:08:07.078Z,38.53
2019-01-25T10:10:36.167Z,38.80
2019-01-25T10:13:05.695Z,38.00
2019-01-25T10:15:34.725Z,39.40
2019-01-25T10:18:04.237Z,40.23
2019-01-25T10:20:33.224Z,44.23
2019-01-25T10:23:02.301Z,39.47
2019-01-25T10:25:32.386Z,42.90
2019-01-25T10:28:01.433Z,45.03
2019-01-25T10:30:30.493Z,47.00
2019-01-25T10:33:00.582Z,40.83
2019-01-25T10:35:28.893Z,38.17
2019-01-25T10:37:57.824Z,38.53
2019-01-25T10:40:26.912Z,40.33
2019-01-25T10:42:55.911Z,40.53
2019-01-25T10:45:29.264Z,44.37
2019-01-25T10:47:58.339Z,40.40
2019-01-25T10:50:27.442Z,41.80
2019-01-25T10:52:56.554Z,40.07
2019-01-25T10:55:25.515Z,39.63
2019-01-25T10:57:54.629Z,37.80
2019-01-25T11:00:23.708Z,37.53
2019-01-25T11:02:58.111Z,38.10
2019-01-25T11:05:23.289Z,40.83
2019-01-25T11:07:52.404Z,37.47
2019-01-25T11:10:22.205Z,38.63
2019-01-25T11:12:51.253Z,40.97
2019-01-25T11:15:21.647Z,36.47
2019-01-25T11:17:50.901Z,38.47
2019-01-25T11:20:21.611Z,35.37
2019-01-25T11:22:50.828Z,32.97
2019-01-25T11:25:25.779Z,39.47
2019-01-25T11:27:54.984Z,39.43
2019-01-25T11:30:24.089Z,40.67
2019-01-25T11:32:53.443Z,36.60
2019-01-25T11:35:22.479Z,38.57
2019-01-25T11:37:51.595Z,35.00
2019-01-25T11:40:26.200Z,43.60
2019-01-25T11:42:55.517Z,39.50
2019-01-25T11:45:24.575Z,37.67
2019-01-25T11:47:53.618Z,45.60
2019-01-25T11:50:22.773Z,41.27
2019-01-25T11:52:52.597Z,38.90
2019-01-25T11:55:21.739Z,37.40
2019-01-25T11:57:50.779Z,38.83
2019-01-25T12:00:23.179Z,38.43
2019-01-25T12:03:00.035Z,38.13
2019-01-25T12:05:29.089Z,38.33
2019-01-25T12:07:59.429Z,39.80
2019-01-25T12:10:29.555Z,38.60
2019-01-25T12:12:58.558Z,40.33
2019-01-25T12:15:28.113Z,40.47
2019-01-25T12:17:57.318Z,40.87
2019-01-25T12:20:28.551Z,44.23
2019-01-25T12:22:57.591Z,42.07
2019-01-25T12:25:27.043Z,45.93
2019-01-25T12:27:56.238Z,41.23
2019-01-25T12:30:29.049Z,40.73
2019-01-25T12:32:58.209Z,44.10
2019-01-25T12:35:28.243Z,41.87
2019-01-25T12:37:57.343Z,36.47
2019-01-25T12:40:26.487Z,38.80
2019-01-25T12:42:55.735Z,42.80
2019-01-25T12:45:26.974Z,38.80
2019-01-25T12:47:56.139Z,40.33
2019-01-25T12:50:28.627Z,40.00
2019-01-25T12:52:58.347Z,43.67
2019-01-25T12:55:27.422Z,41.67
2019-01-25T12:57:56.572Z,40.27
2019-01-25T13:00:25.638Z,42.53
2019-01-25T13:02:54.781Z,43.27
2019-01-25T13:05:24.017Z,39.50
2019-01-25T13:07:54.061Z,41.73
2019-01-25T13:10:23.547Z,43.97
2019-01-25T13:12:52.669Z,45.07
2019-01-25T13:15:21.881Z,43.60
2019-01-25T13:17:51.035Z,46.37
2019-01-25T13:20:22.183Z,47.47
2019-01-25T13:22:51.421Z,43.20
2019-01-25T13:25:20.823Z,43.13
2019-01-25T13:27:53.393Z,45.47
2019-01-25T13:30:25.150Z,41.53
2019-01-25T13:32:54.299Z,43.77
2019-01-25T13:35:23.557Z,43.53
2019-01-25T13:37:52.969Z,47.93
2019-01-25T13:40:23.243Z,43.20
2019-01-25T13:42:52.540Z,49.53
2019-01-25T13:45:22.229Z,46.70
2019-01-25T13:47:51.621Z,47.60
2019-01-25T13:50:24.858Z,52.50
2019-01-25T13:52:54.833Z,49.67
2019-01-25T13:55:24.733Z,47.20
2019-01-25T13:58:00.938Z,48.27
2019-01-25T14:00:32.180Z,51.87
2019-01-25T14:03:02.991Z,51.43
2019-01-25T14:05:32.379Z,47.77
2019-01-25T14:08:01.591Z,49.50
2019-01-25T14:10:32.939Z,48.23
2019-01-25T14:13:02.111Z,48.80
2019-01-25T14:15:31.269Z,47.47
2019-01-25T14:18:01.541Z,53.43
2019-01-25T14:20:31.415Z,54.57
2019-01-25T14:23:00.497Z,60.47
2019-01-25T14:25:29.878Z,51.93
2019-01-25T14:27:59.137Z,45.93
2019-01-25T14:30:31.687Z,49.07
2019-01-25T14:33:00.739Z,47.27
2019-01-25T14:35:29.732Z,49.43
2019-01-25T14:37:58.866Z,50.07
2019-01-25T14:40:28.081Z,56.37
2019-01-25T14:42:57.302Z,51.30
2019-01-25T14:45:26.378Z,52.80
2019-01-25T14:47:55.394Z,51.93
2019-01-25T14:50:25.332Z,46.03
2019-01-25T14:52:54.986Z,48.43
2019-01-25T14:55:24.049Z,50.00
2019-01-25T14:57:53.062Z,52.90
2019-01-25T15:00:22.152Z,51.13
2019-01-25T15:02:51.245Z,52.20
2019-01-25T15:05:21.567Z,50.60
2019-01-25T15:07:50.609Z,49.67
2019-01-25T15:10:21.985Z,54.57
2019-01-25T15:12:52.615Z,55.47
2019-01-25T15:15:21.684Z,53.73
2019-01-25T15:17:50.725Z,57.37
2019-01-25T15:20:21.427Z,54.27
2019-01-25T15:22:50.650Z,56.67
2019-01-25T15:25:19.846Z,59.87
2019-01-25T15:27:48.962Z,59.87
2019-01-25T15:30:20.514Z,56.57
2019-01-25T15:32:49.712Z,55.47
2019-01-25T15:35:20.032Z,57.83
2019-01-25T15:37:49.815Z,59.13
2019-01-25T15:40:19.312Z,52.97
2019-01-25T15:42:48.361Z,58.33
2019-01-25T15:45:18.605Z,52.87
2019-01-25T15:47:47.594Z,48.67
2019-01-25T15:50:19.065Z,58.63
2019-01-25T15:52:49.144Z,53.80
2019-01-25T15:55:18.509Z,57.50
2019-01-25T15:57:47.740Z,56.67
2019-01-25T16:00:19.474Z,63.80
2019-01-25T16:02:48.610Z,59.33
2019-01-25T16:05:18.801Z,56.10
2019-01-25T16:07:49.760Z,54.40
2019-01-25T16:10:18.788Z,57.17
2019-01-25T16:12:47.779Z,51.40
2019-01-25T16:15:19.865Z,53.37
2019-01-25T16:17:48.897Z,55.80
2019-01-25T16:20:18.037Z,54.50
2019-01-25T16:22:47.152Z,55.07
2019-01-25T16:25:18.601Z,54.07
2019-01-25T16:27:47.739Z,53.83
2019-01-25T16:30:19.665Z,58.03
2019-01-25T16:32:49.013Z,63.90
2019-01-25T16:35:18.089Z,60.53
2019-01-25T16:37:47.147Z,60.73
2019-01-25T16:40:17.655Z,62.33
2019-01-25T16:42:46.778Z,55.87
2019-01-25T16:45:20.277Z,64.60
2019-01-25T16:47:49.427Z,60.03
2019-01-25T16:50:23.595Z,59.07
2019-01-25T16:52:47.722Z,54.93
2019-01-25T16:55:16.765Z,60.43
2019-01-25T16:57:45.811Z,61.27
2019-01-25T17:00:19.711Z,58.50
2019-01-25T17:02:48.762Z,59.70
2019-01-25T17:05:17.950Z,65.37
2019-01-25T17:07:46.998Z,66.40
2019-01-25T17:10:16.277Z,59.53
2019-01-25T17:12:45.459Z,59.87
2019-01-25T17:15:14.676Z,58.03
2019-01-25T17:17:43.715Z,57.60
2019-01-25T17:20:18.448Z,56.23
2019-01-25T17:22:42.403Z,66.17
2019-01-25T17:25:11.602Z,62.87
2019-01-25T17:27:40.626Z,64.97
2019-01-25T17:30:27.854Z,58.53
2019-01-25T17:32:58.287Z,67.73
2019-01-25T17:35:27.474Z,60.33
2019-01-25T17:37:56.541Z,61.37
2019-01-25T17:40:28.754Z,66.20
2019-01-25T17:42:57.929Z,81.83
2019-01-25T17:45:27.012Z,62.80
2019-01-25T17:47:56.206Z,67.13
2019-01-25T17:50:25.221Z,72.83
2019-01-25T17:52:54.178Z,66.67
2019-01-25T17:55:23.617Z,69.53
2019-01-25T17:57:52.834Z,80.20
2019-01-25T18:00:28.248Z,70.50
2019-01-25T18:02:57.498Z,78.47
2019-01-25T18:05:26.579Z,69.83
2019-01-25T18:07:55.577Z,69.80
2019-01-25T18:10:24.785Z,62.43
2019-01-25T18:12:54.116Z,61.87
2019-01-25T18:15:23.406Z,67.20
2019-01-25T18:17:52.466Z,71.03
2019-01-25T18:20:21.665Z,70.40
2019-01-25T18:22:50.769Z,79.63
2019-01-25T18:25:26.679Z,71.97
2019-01-25T18:27:59.498Z,71.20
2019-01-25T18:30:37.249Z,65.83
2019-01-25T18:33:06.465Z,73.60
2019-01-25T18:35:35.739Z,75.57
2019-01-25T18:38:05.200Z,66.67
2019-01-25T18:40:34.394Z,70.07
2019-01-25T18:43:03.508Z,72.87
2019-01-25T18:45:32.600Z,69.30
2019-01-25T18:48:02.672Z,71.57
2019-01-25T18:50:31.914Z,78.70
2019-01-25T18:53:00.953Z,69.13
2019-01-25T18:55:34.959Z,64.37
2019-01-25T18:58:04.071Z,63.80
2019-01-25T19:00:33.247Z,70.03
2019-01-25T19:03:02.675Z,66.23
2019-01-25T19:05:32.164Z,71.30
2019-01-25T19:08:01.196Z,67.60
2019-01-25T19:10:30.409Z,71.93
2019-01-25T19:12:59.599Z,67.40
2019-01-25T19:15:29.360Z,62.57
2019-01-25T19:17:59.610Z,72.20
2019-01-25T19:20:28.936Z,58.73
2019-01-25T19:22:58.405Z,65.13
2019-01-25T19:25:27.360Z,64.13
2019-01-25T19:27:56.533Z,68.60
2019-01-25T19:30:27.917Z,69.63
2019-01-25T19:32:56.925Z,69.13
2019-01-25T19:35:25.915Z,62.00
2019-01-25T19:37:55.056Z,64.20
2019-01-25T19:40:25.360Z,63.20
2019-01-25T19:42:54.348Z,61.07
2019-01-25T19:45:23.468Z,57.13
2019-01-25T19:47:52.735Z,59.60
2019-01-25T19:50:21.890Z,61.73
2019-01-25T19:52:50.999Z,53.87
2019-01-25T19:55:23.170Z,64.40
2019-01-25T19:57:52.645Z,45.07
2019-01-25T20:00:27.315Z,47.40
2019-01-25T20:02:56.695Z,51.87
2019-01-25T20:05:28.871Z,43.60
2019-01-25T20:07:58.103Z,49.23
2019-01-25T20:10:27.193Z,53.93
2019-01-25T20:12:56.499Z,45.63
2019-01-25T20:15:25.630Z,45.13
2019-01-25T20:17:54.762Z,44.63
2019-01-25T20:20:27.172Z,47.00
2019-01-25T20:22:56.275Z,42.90
2019-01-25T20:25:25.820Z,44.80
2019-01-25T20:27:55.047Z,42.93
2019-01-25T20:30:26.545Z,42.30
2019-01-25T20:32:56.066Z,39.23
2019-01-25T20:35:28.099Z,42.27
2019-01-25T20:37:57.179Z,42.17
2019-01-25T20:40:26.304Z,38.33
2019-01-25T20:42:55.409Z,42.33
2019-01-25T20:46:27.411Z,42.20
2019-01-25T20:48:56.623Z,40.67
2019-01-25T20:51:26.067Z,41.47
2019-01-25T20:53:55.169Z,39.40
2019-01-25T20:56:24.507Z,39.37
2019-01-25T20:58:53.737Z,42.07
2019-01-25T21:01:23.389Z,43.27
2019-01-25T21:03:52.658Z,39.23
2019-01-25T21:06:21.867Z,39.00
2019-01-25T21:08:51.017Z,42.80
2019-01-25T21:11:20.068Z,38.30
2019-01-25T21:13:49.131Z,36.17
2019-01-25T21:16:18.508Z,40.83
2019-01-25T21:18:53.653Z,41.20
2019-01-25T21:21:26.029Z,43.83
2019-01-25T21:23:55.283Z,45.27
2019-01-25T21:26:24.925Z,40.30
2019-01-25T21:28:54.424Z,41.10
2019-01-25T21:31:23.558Z,50.87
2019-01-25T21:33:52.650Z,44.20
2019-01-25T21:36:21.727Z,38.17
2019-01-25T21:38:50.740Z,40.63
2019-01-25T21:41:19.817Z,35.47
2019-01-25T21:43:48.830Z,36.33
2019-01-25T21:46:18.108Z,40.47
2019-01-25T21:48:47.255Z,34.83
2019-01-25T21:51:16.537Z,38.20
2019-01-25T21:53:45.680Z,39.97
2019-01-25T21:56:15.447Z,35.80
2019-01-25T21:58:44.727Z,44.73
2019-01-25T22:01:13.729Z,38.63
2019-01-25T22:03:42.795Z,42.27
2019-01-25T22:06:12.070Z,43.63
2019-01-25T22:08:45.770Z,42.67
2019-01-25T22:11:14.813Z,39.20
2019-01-25T22:13:43.972Z,44.93
2019-01-25T22:18:48.160Z,40.77
2019-01-25T22:21:17.488Z,40.97
2019-01-25T22:23:46.603Z,41.70
2019-01-25T22:26:16.559Z,38.80
2019-01-25T22:28:45.824Z,41.00
2019-01-25T22:31:14.871Z,42.57
2019-01-25T22:33:44.065Z,46.07
2019-01-25T22:36:13.274Z,38.70
2019-01-25T22:38:42.648Z,45.47
2019-01-25T22:41:11.822Z,43.60
2019-01-25T22:43:40.912Z,42.07
2019-01-25T22:46:10.871Z,41.60
2019-01-25T22:48:39.878Z,40.93
2019-01-25T22:51:11.198Z,43.50
2019-01-25T22:53:40.633Z,43.73
2019-01-25T22:56:09.984Z,39.63
2019-01-25T22:58:39.609Z,42.90
2019-01-25T23:01:19.856Z,36.70
2019-01-25T23:04:04.769Z,38.90
2019-01-25T23:07:36.521Z,40.33
2019-01-25T23:10:12.073Z,42.87
2019-01-25T23:12:41.485Z,43.20
2019-01-25T23:15:13.485Z,39.40
2019-01-25T23:17:44.237Z,42.97
2019-01-25T23:22:41.565Z,50.63
2019-01-25T23:25:11.233Z,49.43
2019-01-25T23:27:40.400Z,42.90
2019-01-25T23:30:15.817Z,51.63
2019-01-25T23:32:45.282Z,46.57
2019-01-25T23:35:14.358Z,46.13
2019-01-25T23:37:43.524Z,48.90
2019-01-25T23:40:14.934Z,53.03
2019-01-25T23:42:44.645Z,52.13
2019-01-25T23:45:13.902Z,55.03
2019-01-25T23:47:43.131Z,53.93
2019-01-25T23:50:12.501Z,52.37
2019-01-25T23:52:41.689Z,60.57
2019-01-25T23:55:10.821Z,50.90
2019-01-25T23:57:40.031Z,49.27
